• Join FlightAware (Why Join?)
  • Login
  • US Flag 
07:06PM EDT


 

Airport Tracker/Info


-or-


 

Live Flight TrackerFlight Track Log ✈ SKW7427 ✈ 25-May-2013 ✈ KMSP - KINL

Flight Track Log - Related Links

Times and Time Zones

All times are in EDT time to prevent confusion due to time zone crossing. See the SKW7427 flight status page for this flight to view local times or setup timezone preferences in your user account.

Time Position Orientation Groundspeed Altitude Reporting Facility
EDT Latitude Longitude Course Direction KTS MPH feet Rate Location/Type
08:33PM 44.8667 -93.1833 North 150 173 2,100  Level Minneapolis TRACON
08:33PM 44.8697 -93.1558 81° East 159 183 2,800 2,340 Climbing Minneapolis Center
08:34PM 44.8933 -93.0875 64° Northeast 233 268 5,600 2,700 Climbing Minneapolis Center
08:35PM 44.9689 -93.0808 North 276 318 8,400 2,820 Climbing Minneapolis Center
08:36PM 45.2807 -93.3667 North  Level FlightAware Approximate
08:36PM 45.0647 -93.0686 North 290 334 11,500  Level Minneapolis Center
08:37PM 45.3896 -93.3667 North  Level FlightAware Approximate
08:37PM 45.1539 -93.0728 358° North 320 368 13,600  Level Minneapolis Center
08:38PM 45.4984 -93.3667 North  Level FlightAware Approximate
08:38PM 45.2497 -93.0831 356° North 349 402 14,900  Level Minneapolis Center
08:39PM 45.3494 -93.0919 356° North 361 415 16,400 1,440 Climbing Minneapolis Center
08:40PM 45.4500 -93.1019 356° North 365 420 17,900 1,380 Climbing Minneapolis Center
08:41PM 45.5542 -93.1128 356° North 375 432 19,300 1,320 Climbing Minneapolis Center
08:42PM 45.6597 -93.1219 357° North 381 438 20,700 1,320 Climbing Minneapolis Center
08:43PM 45.7681 -93.1331 356° North 388 447 22,100 1,140 Climbing Minneapolis Center
08:44PM 45.8758 -93.1428 356° North 390 449 23,100 1,020 Climbing Minneapolis Center
08:45PM 46.0089 -93.1531 357° North 398 458 24,200 900 Climbing Minneapolis Center
08:46PM 46.1214 -93.1644 356° North 405 466 25,000 780 Climbing Minneapolis Center
08:47PM 46.2331 -93.1753 356° North 410 472 25,800 1,080 Climbing Minneapolis Center
08:48PM 46.3486 -93.1864 356° North 411 473 27,200 1,260 Climbing Minneapolis Center
08:50PM 46.4581 -93.1967 356° North 406 467 28,400 1,140 Climbing Minneapolis Center
08:51PM 46.5658 -93.2061 357° North 396 456 29,600 780 Climbing Minneapolis Center
08:52PM 46.6744 -93.2164 356° North 392 451 30,000 180 Climbing Minneapolis Center
08:53PM 46.7892 -93.2283 356° North 404 465 30,000  Level Minneapolis Center
08:54PM 46.9067 -93.2403 356° North 418 481 30,000  Level Minneapolis Center
08:55PM 47.0275 -93.2514 356° North 428 493 30,000  Level Minneapolis Center
08:56PM 47.1489 -93.2628 356° North 435 501 30,000  Level Minneapolis Center
08:57PM 47.2864 -93.2758 356° North 418 481 30,000  Level Minneapolis Center
08:58PM 47.3947 -93.2869 356° North 403 464 30,000 -360 Level Minneapolis Center
08:59PM 47.4906 -93.2950 357° North 395 455 29,300 -2,220 Descending Minneapolis Center
09:00PM 47.6033 -93.3067 356° North 401 461 25,600 -4,020 Descending Minneapolis Center
09:01PM 47.7403 -93.3211 356° North 409 471 21,100 -3,960 Descending Minneapolis Center
09:02PM 47.8528 -93.3331 356° North 408 470 17,600 -3,600 Descending Minneapolis Center
09:03PM 47.9608 -93.3436 356° North 401 461 13,800 -3,300 Descending Minneapolis Center
09:04PM 48.0625 -93.3536 356° North 386 444 11,000 -1,980 Descending Minneapolis Center
09:05PM 48.1464 -93.3625 356° North 335 386 9,800 -1,560 Descending Minneapolis Center
09:06PM 48.2256 -93.3697 357° North 304 350 7,900 -1,860 Descending Minneapolis Center
09:07PM 48.3019 -93.3786 356° North 289 333 6,100 -1,800 Descending Minneapolis Center
09:08PM 48.3761 -93.3694 North 277 319 4,300 -1,320 Descending Minneapolis Center
09:09PM 48.4442 -93.3394 16° North 265 305 3,500 -600 Descending Minneapolis Center
09:10PM 48.5114 -93.3167 13° North 250 288 3,100 -420 Descending Minneapolis Center
09:12PM 48.5500 -93.4000 342° North  Level FlightAware Approximate